createdAt,value
2022-11-14T00:03:11.362Z,16.40
2022-11-14T00:08:18.601Z,13.52
2022-11-14T00:13:22.142Z,13.02
2022-11-14T00:18:25.293Z,12.05
2022-11-14T00:23:29.673Z,9.65
2022-11-14T00:28:32.995Z,11.10
2022-11-14T00:33:36.127Z,11.27
2022-11-14T00:38:40.443Z,8.52
2022-11-14T00:43:43.398Z,7.93
2022-11-14T00:48:46.374Z,7.18
2022-11-14T00:53:50.692Z,6.47
2022-11-14T00:58:53.677Z,6.85
2022-11-14T01:03:56.667Z,6.47
2022-11-14T01:09:01.057Z,7.05
2022-11-14T01:14:06.952Z,5.22
2022-11-14T01:19:10.318Z,6.88
2022-11-14T01:24:14.644Z,5.05
2022-11-14T01:29:17.676Z,4.25
2022-11-14T01:34:20.646Z,5.00
2022-11-14T01:39:25.137Z,5.35
2022-11-14T01:44:45.730Z,5.30
2022-11-14T01:49:53.558Z,5.53
2022-11-14T01:55:01.775Z,4.10
2022-11-14T02:00:08.956Z,5.25
2022-11-14T02:05:16.472Z,4.18
2022-11-14T02:10:22.737Z,4.60
2022-11-14T02:15:27.385Z,4.90
2022-11-14T02:20:35.914Z,5.25
2022-11-14T02:25:40.004Z,4.75
2022-11-14T02:30:42.972Z,5.15
2022-11-14T02:35:47.309Z,4.68
2022-11-14T02:40:50.254Z,4.05
2022-11-14T02:45:53.802Z,4.80
2022-11-14T02:50:58.220Z,4.95
2022-11-14T02:56:01.322Z,4.72
2022-11-14T03:01:20.276Z,4.32
2022-11-14T03:06:25.635Z,3.83
2022-11-14T03:11:28.673Z,3.42
2022-11-14T03:16:31.656Z,4.90
2022-11-14T03:21:36.010Z,4.10
2022-11-14T03:26:39.047Z,4.70
2022-11-14T03:31:42.073Z,3.70
2022-11-14T03:36:46.465Z,3.65
2022-11-14T03:41:49.482Z,3.60
2022-11-14T03:46:53.282Z,3.90
2022-11-14T03:51:57.637Z,4.53
2022-11-14T03:57:00.683Z,5.43
2022-11-14T04:02:03.658Z,3.95
2022-11-14T04:07:08.053Z,3.72
2022-11-14T04:12:15.560Z,4.20
2022-11-14T04:17:18.908Z,4.45
2022-11-14T04:22:23.389Z,4.03
2022-11-14T04:27:26.454Z,3.20
2022-11-14T04:32:29.416Z,3.58
2022-11-14T04:37:33.812Z,4.45
2022-11-14T04:42:36.808Z,4.13
2022-11-14T04:47:39.780Z,3.80
2022-11-14T04:52:44.170Z,3.50
2022-11-14T04:57:47.147Z,4.55
2022-11-14T05:02:50.234Z,4.35
2022-11-14T05:07:55.623Z,3.88
2022-11-14T05:12:58.615Z,5.93
2022-11-14T05:18:01.606Z,6.72
2022-11-14T05:23:06.295Z,4.93
2022-11-14T05:28:09.247Z,4.68
2022-11-14T05:33:12.198Z,5.78
2022-11-14T05:38:16.582Z,5.40
2022-11-14T05:43:19.593Z,4.28
2022-11-14T05:48:22.530Z,5.13
2022-11-14T05:53:27.707Z,8.98
2022-11-14T05:58:32.057Z,3.92
2022-11-14T06:03:37.079Z,5.40
2022-11-14T06:08:41.997Z,5.53
2022-11-14T06:13:45.357Z,5.05
2022-11-14T06:18:48.387Z,4.45
2022-11-14T06:23:52.998Z,8.05
2022-11-14T06:28:55.958Z,6.57
2022-11-14T06:33:58.906Z,5.05
2022-11-14T06:39:03.234Z,15.88
2022-11-14T06:44:09.413Z,6.82
2022-11-14T06:49:12.397Z,5.90
2022-11-14T06:54:16.859Z,7.07
2022-11-14T06:59:20.033Z,8.48
2022-11-14T07:04:23.021Z,6.95
2022-11-14T07:09:27.925Z,6.40
2022-11-14T07:14:30.894Z,5.55
2022-11-14T07:19:33.953Z,3.78
2022-11-14T07:24:38.287Z,7.80
2022-11-14T07:29:41.241Z,4.05
2022-11-14T07:34:44.190Z,4.70
2022-11-14T07:39:48.582Z,5.13
2022-11-14T07:44:51.614Z,2.90
2022-11-14T07:49:54.582Z,3.75
2022-11-14T07:54:58.961Z,5.85
2022-11-14T08:00:01.948Z,4.93
2022-11-14T08:05:05.425Z,4.30
2022-11-14T08:10:11.970Z,4.93
2022-11-14T08:15:15.642Z,3.75
2022-11-14T08:20:18.806Z,3.58
2022-11-14T08:25:23.125Z,3.83
2022-11-14T08:30:26.393Z,3.00
2022-11-14T08:35:29.561Z,3.85
2022-11-14T08:40:33.890Z,4.80
2022-11-14T08:45:36.928Z,4.45
2022-11-14T08:50:39.987Z,4.60
2022-11-14T08:55:46.902Z,5.38
2022-11-14T09:00:51.900Z,4.43
2022-11-14T09:05:55.014Z,4.97
2022-11-14T09:11:05.248Z,6.10
2022-11-14T09:16:09.739Z,3.80
2022-11-14T09:21:12.949Z,4.25
2022-11-14T09:26:18.366Z,3.72
2022-11-14T09:31:21.549Z,4.10
2022-11-14T09:36:24.509Z,4.63
2022-11-14T09:41:41.542Z,5.65
2022-11-14T09:46:46.878Z,4.15
2022-11-14T09:51:55.459Z,4.80
2022-11-14T09:57:01.174Z,3.80
2022-11-14T10:02:18.107Z,4.35
2022-11-14T10:07:28.812Z,3.60
2022-11-14T10:12:41.635Z,8.93
2022-11-14T10:18:00.389Z,11.65
2022-11-14T10:23:27.658Z,7.25
2022-11-14T10:28:41.227Z,7.53
2022-11-14T10:33:55.238Z,5.25
2022-11-14T10:39:05.243Z,7.07
2022-11-14T10:44:14.636Z,4.07
2022-11-14T10:49:20.824Z,5.90
2022-11-14T10:54:28.403Z,4.65
2022-11-14T10:59:32.765Z,5.63
2022-11-14T11:04:37.569Z,6.32
2022-11-14T11:09:59.498Z,4.55
2022-11-14T11:15:19.745Z,4.80
2022-11-14T11:20:33.155Z,5.90
2022-11-14T11:25:37.589Z,6.47
2022-11-14T11:30:55.702Z,6.57
2022-11-14T11:36:00.825Z,4.00
2022-11-14T11:41:20.652Z,4.97
2022-11-14T11:46:43.386Z,6.10
2022-11-14T11:51:47.609Z,5.63
2022-11-14T11:56:55.462Z,6.07
2022-11-14T12:02:00.174Z,6.00
2022-11-14T12:07:08.925Z,6.72
2022-11-14T12:12:18.966Z,4.18
2022-11-14T12:17:54.701Z,5.70
2022-11-14T12:23:14.991Z,4.65
2022-11-14T12:28:41.084Z,6.63
2022-11-14T12:33:52.749Z,5.50
2022-11-14T12:38:56.883Z,4.50
2022-11-14T12:44:20.615Z,5.43
2022-11-14T12:49:59.093Z,5.40
2022-11-14T12:55:02.079Z,3.63
2022-11-14T13:00:09.035Z,5.55
2022-11-14T13:05:41.663Z,3.95
2022-11-14T13:10:44.745Z,4.28
2022-11-14T13:16:10.368Z,3.60
2022-11-14T13:21:45.413Z,6.93
2022-11-14T13:26:51.568Z,8.57
2022-11-14T13:31:54.635Z,8.32
2022-11-14T13:37:07.598Z,6.95
2022-11-14T13:42:27.466Z,4.50
2022-11-14T13:47:57.637Z,6.10
2022-11-14T13:53:02.244Z,5.93
2022-11-14T13:58:17.230Z,5.60
2022-11-14T14:03:34.877Z,5.20
2022-11-14T14:09:10.138Z,4.68
2022-11-14T14:14:32.754Z,4.68
2022-11-14T14:19:46.678Z,4.22
2022-11-14T14:24:59.690Z,22.50
2022-11-14T14:30:08.907Z,19.85
2022-11-14T14:35:26.392Z,16.58
2022-11-14T14:40:33.896Z,13.52
2022-11-14T14:45:48.689Z,8.40
2022-11-14T14:50:53.290Z,9.82
2022-11-14T14:55:59.309Z,12.18
2022-11-14T15:01:05.619Z,8.30
2022-11-14T15:06:29.681Z,8.18
2022-11-14T15:11:34.947Z,43.03
2022-11-14T15:16:38.058Z,45.10
2022-11-14T15:21:41.089Z,44.42
2022-11-14T15:26:47.383Z,61.22
2022-11-14T15:31:53.268Z,53.63
2022-11-14T15:37:22.514Z,48.17
2022-11-14T15:42:30.853Z,46.90
2022-11-14T15:47:39.895Z,44.85
2022-11-14T15:52:49.850Z,41.35
2022-11-14T15:58:13.708Z,39.53
2022-11-14T16:03:19.401Z,39.20
2022-11-14T16:08:22.379Z,36.70
2022-11-14T16:13:26.718Z,33.40
2022-11-14T16:18:29.685Z,33.13
2022-11-14T16:23:32.804Z,30.90
2022-11-14T16:28:37.370Z,30.02
2022-11-14T16:33:40.365Z,27.40
2022-11-14T16:38:43.357Z,26.70
2022-11-14T16:43:47.754Z,25.33
2022-11-14T16:48:50.875Z,24.70
2022-11-14T16:53:56.666Z,23.73
2022-11-14T16:59:01.434Z,23.55
2022-11-14T17:04:04.989Z,22.67
2022-11-14T17:09:08.049Z,21.85
2022-11-14T17:14:12.394Z,20.45
2022-11-14T17:19:15.363Z,19.63
2022-11-14T17:24:18.495Z,37.00
2022-11-14T17:29:22.814Z,23.92
2022-11-14T17:34:25.873Z,20.98
2022-11-14T17:39:29.780Z,21.75
2022-11-14T17:44:34.166Z,19.90
2022-11-14T17:49:37.165Z,17.25
2022-11-14T17:54:40.136Z,16.10
2022-11-14T17:59:44.523Z,15.35
2022-11-14T18:04:48.722Z,17.35
2022-11-14T18:09:51.704Z,13.82
2022-11-14T18:14:56.055Z,12.90
2022-11-14T18:20:00.198Z,13.32
2022-11-14T18:25:07.631Z,12.93
2022-11-14T18:30:39.850Z,11.95
2022-11-14T18:35:36.425Z,11.70
2022-11-14T18:40:39.482Z,11.55
2022-11-14T18:45:43.989Z,11.20
2022-11-14T18:50:47.008Z,10.68
2022-11-14T18:55:53.082Z,10.90
2022-11-14T19:00:57.554Z,10.40
2022-11-14T19:06:03.192Z,11.68
2022-11-14T19:11:08.384Z,9.30
2022-11-14T19:16:12.762Z,12.57
2022-11-14T19:21:15.782Z,8.88
2022-11-14T19:26:18.750Z,8.38
2022-11-14T19:31:24.023Z,9.30
2022-11-14T19:36:57.759Z,14.52
2022-11-14T19:41:50.289Z,8.93
2022-11-14T19:46:54.653Z,14.95
2022-11-14T19:51:57.629Z,8.10
2022-11-14T19:57:00.607Z,7.78
2022-11-14T20:02:05.001Z,7.05
2022-11-14T20:07:08.136Z,7.18
2022-11-14T20:12:11.243Z,7.80
2022-11-14T20:17:15.694Z,6.53
2022-11-14T20:22:19.359Z,6.85
2022-11-14T20:27:22.492Z,6.93
2022-11-14T20:32:27.086Z,7.50
2022-11-14T20:37:30.282Z,6.18
2022-11-14T20:42:33.475Z,8.63
2022-11-14T20:47:38.025Z,6.80
2022-11-14T20:52:41.158Z,6.22
2022-11-14T20:57:44.318Z,6.25
2022-11-14T21:02:49.010Z,5.30
2022-11-14T21:07:52.046Z,8.30
2022-11-14T21:13:08.986Z,6.47
2022-11-14T21:18:14.484Z,11.32
2022-11-14T21:23:17.517Z,9.82
2022-11-14T21:28:20.550Z,6.57
2022-11-14T21:33:25.181Z,6.28
2022-11-14T21:38:28.515Z,5.13
2022-11-14T21:43:32.288Z,5.05
2022-11-14T21:48:41.404Z,5.40
2022-11-14T21:53:46.075Z,6.40
2022-11-14T21:58:49.849Z,4.95
2022-11-14T22:04:11.789Z,5.63
2022-11-14T22:09:14.848Z,4.57
2022-11-14T22:14:17.915Z,4.03
2022-11-14T22:19:22.303Z,4.78
2022-11-14T22:24:25.338Z,5.70
2022-11-14T22:29:28.395Z,6.00
2022-11-14T22:34:32.774Z,4.07
2022-11-14T22:39:35.774Z,6.78
2022-11-14T22:44:38.801Z,6.97
2022-11-14T22:49:43.157Z,5.75
2022-11-14T22:54:46.138Z,4.78
2022-11-14T22:59:49.149Z,4.35
2022-11-14T23:04:53.521Z,3.40
2022-11-14T23:09:56.489Z,3.40
2022-11-14T23:14:59.520Z,4.72
2022-11-14T23:20:04.763Z,3.10
2022-11-14T23:25:08.227Z,2.83
2022-11-14T23:30:12.264Z,3.95
2022-11-14T23:35:16.840Z,3.35
2022-11-14T23:40:20.350Z,2.78
2022-11-14T23:45:23.306Z,3.40
2022-11-14T23:50:27.888Z,2.53
2022-11-14T23:55:30.894Z,2.42
